sensor_id;sensor_type;location;lat;lon;timestamp;pressure;altitude;pressure_sealevel;temperature;humidity
60015;BME280;45867;52.480;6.056;2023-05-08T00:01:43;101964.53;;;12.33;100.00
60015;BME280;45867;52.480;6.056;2023-05-08T00:04:08;101960.00;;;12.28;100.00
60015;BME280;45867;52.480;6.056;2023-05-08T00:06:33;101967.19;;;12.33;100.00
60015;BME280;45867;52.480;6.056;2023-05-08T00:08:59;101960.50;;;12.25;100.00
60015;BME280;45867;52.480;6.056;2023-05-08T00:11:24;101962.09;;;12.26;100.00
60015;BME280;45867;52.480;6.056;2023-05-08T00:13:50;101960.97;;;12.22;100.00
60015;BME280;45867;52.480;6.056;2023-05-08T00:16:15;101963.28;;;12.13;100.00
60015;BME280;45867;52.480;6.056;2023-05-08T00:18:40;101965.41;;;12.11;100.00
60015;BME280;45867;52.480;6.056;2023-05-08T00:21:06;101959.47;;;12.04;100.00
60015;BME280;45867;52.480;6.056;2023-05-08T00:23:32;101957.31;;;12.01;100.00
60015;BME280;45867;52.480;6.056;2023-05-08T00:25:57;101964.16;;;11.97;100.00
60015;BME280;45867;52.480;6.056;2023-05-08T00:28:25;101951.84;;;11.91;100.00
60015;BME280;45867;52.480;6.056;2023-05-08T00:30:51;101948.09;;;11.87;100.00
60015;BME280;45867;52.480;6.056;2023-05-08T00:33:17;101952.59;;;11.86;100.00
60015;BME280;45867;52.480;6.056;2023-05-08T00:35:42;101945.19;;;11.88;100.00
60015;BME280;45867;52.480;6.056;2023-05-08T00:38:08;101945.88;;;11.84;100.00
60015;BME280;45867;52.480;6.056;2023-05-08T00:40:33;101943.13;;;11.73;100.00
60015;BME280;45867;52.480;6.056;2023-05-08T00:42:59;101948.59;;;11.67;100.00
60015;BME280;45867;52.480;6.056;2023-05-08T00:45:27;101940.75;;;11.55;100.00
60015;BME280;45867;52.480;6.056;2023-05-08T00:47:57;101950.81;;;11.53;100.00
60015;BME280;45867;52.480;6.056;2023-05-08T00:50:22;101953.22;;;11.54;100.00
60015;BME280;45867;52.480;6.056;2023-05-08T00:52:48;101952.00;;;11.45;100.00
60015;BME280;45867;52.480;6.056;2023-05-08T00:55:14;101956.38;;;11.34;100.00
60015;BME280;45867;52.480;6.056;2023-05-08T00:57:39;101948.28;;;11.24;100.00
60015;BME280;45867;52.480;6.056;2023-05-08T01:00:05;101954.06;;;11.21;100.00
60015;BME280;45867;52.480;6.056;2023-05-08T01:02:31;101955.78;;;11.10;100.00
60015;BME280;45867;52.480;6.056;2023-05-08T01:04:57;101954.63;;;11.06;100.00
60015;BME280;45867;52.480;6.056;2023-05-08T01:07:23;101959.06;;;11.01;100.00
60015;BME280;45867;52.480;6.056;2023-05-08T01:09:48;101962.75;;;11.00;100.00
60015;BME280;45867;52.480;6.056;2023-05-08T01:15:31;101959.69;;;10.91;100.00
60015;BME280;45867;52.480;6.056;2023-05-08T01:18:12;101961.22;;;10.87;100.00
60015;BME280;45867;52.480;6.056;2023-05-08T01:20:57;101955.81;;;10.82;100.00
60015;BME280;45867;52.480;6.056;2023-05-08T01:23:52;101947.78;;;10.77;100.00
60015;BME280;45867;52.480;6.056;2023-05-08T01:32:16;101945.19;;;10.65;100.00
60015;BME280;45867;52.480;6.056;2023-05-08T01:34:43;101942.94;;;10.57;100.00
60015;BME280;45867;52.480;6.056;2023-05-08T01:37:14;101935.94;;;10.51;100.00
60015;BME280;45867;52.480;6.056;2023-05-08T01:39:50;101950.47;;;10.48;100.00
60015;BME280;45867;52.480;6.056;2023-05-08T01:42:23;101949.22;;;10.39;100.00
60015;BME280;45867;52.480;6.056;2023-05-08T01:44:59;101943.59;;;10.35;100.00
60015;BME280;45867;52.480;6.056;2023-05-08T01:47:28;101945.13;;;10.31;100.00
60015;BME280;45867;52.480;6.056;2023-05-08T01:50:07;101944.56;;;10.29;100.00
60015;BME280;45867;52.480;6.056;2023-05-08T01:52:44;101945.22;;;10.25;100.00
60015;BME280;45867;52.480;6.056;2023-05-08T01:55:19;101948.13;;;10.23;100.00
60015;BME280;45867;52.480;6.056;2023-05-08T01:57:46;101943.06;;;10.21;100.00
60015;BME280;45867;52.480;6.056;2023-05-08T02:00:16;101947.66;;;10.26;100.00
60015;BME280;45867;52.480;6.056;2023-05-08T02:02:43;101953.88;;;10.20;100.00
60015;BME280;45867;52.480;6.056;2023-05-08T02:05:10;101951.16;;;10.15;100.00
60015;BME280;45867;52.480;6.056;2023-05-08T02:07:37;101947.81;;;10.08;100.00
60015;BME280;45867;52.480;6.056;2023-05-08T02:10:05;101948.03;;;10.06;100.00
60015;BME280;45867;52.480;6.056;2023-05-08T02:12:31;101951.88;;;9.98;100.00
60015;BME280;45867;52.480;6.056;2023-05-08T02:14:59;101962.13;;;9.95;100.00
60015;BME280;45867;52.480;6.056;2023-05-08T02:17:26;101963.97;;;9.94;100.00
60015;BME280;45867;52.480;6.056;2023-05-08T02:19:57;101962.59;;;9.92;100.00
60015;BME280;45867;52.480;6.056;2023-05-08T02:22:23;101954.19;;;9.95;100.00
60015;BME280;45867;52.480;6.056;2023-05-08T02:24:50;101950.38;;;10.03;100.00
60015;BME280;45867;52.480;6.056;2023-05-08T02:27:24;101942.31;;;9.97;100.00
60015;BME280;45867;52.480;6.056;2023-05-08T02:29:50;101954.63;;;10.04;100.00
60015;BME280;45867;52.480;6.056;2023-05-08T02:32:18;101952.91;;;9.97;100.00
60015;BME280;45867;52.480;6.056;2023-05-08T02:34:46;101946.59;;;9.98;100.00
60015;BME280;45867;52.480;6.056;2023-05-08T02:37:13;101944.63;;;9.94;100.00
60015;BME280;45867;52.480;6.056;2023-05-08T02:39:41;101943.59;;;9.95;100.00
60015;BME280;45867;52.480;6.056;2023-05-08T02:42:08;101944.63;;;9.94;100.00
60015;BME280;45867;52.480;6.056;2023-05-08T02:44:34;101943.25;;;9.91;100.00
60015;BME280;45867;52.480;6.056;2023-05-08T02:47:06;101948.66;;;9.85;100.00
60015;BME280;45867;52.480;6.056;2023-05-08T02:49:47;101952.84;;;9.81;100.00
60015;BME280;45867;52.480;6.056;2023-05-08T02:52:37;101951.69;;;9.88;100.00
60015;BME280;45867;52.480;6.056;2023-05-08T02:55:33;101951.91;;;9.87;100.00
60015;BME280;45867;52.480;6.056;2023-05-08T02:58:15;101949.97;;;9.82;100.00
60015;BME280;45867;52.480;6.056;2023-05-08T03:00:47;101948.22;;;9.76;100.00
60015;BME280;45867;52.480;6.056;2023-05-08T03:03:20;101949.97;;;9.70;100.00
60015;BME280;45867;52.480;6.056;2023-05-08T03:05:53;101945.59;;;9.64;100.00
60015;BME280;45867;52.480;6.056;2023-05-08T03:08:29;101949.38;;;9.68;100.00
60015;BME280;45867;52.480;6.056;2023-05-08T03:10:58;101948.03;;;9.66;100.00
60015;BME280;45867;52.480;6.056;2023-05-08T03:13:27;101950.22;;;9.69;100.00
60015;BME280;45867;52.480;6.056;2023-05-08T03:15:59;101943.75;;;9.65;100.00
60015;BME280;45867;52.480;6.056;2023-05-08T03:18:29;101949.84;;;9.65;100.00
60015;BME280;45867;52.480;6.056;2023-05-08T03:20:58;101941.13;;;9.65;100.00
60015;BME280;45867;52.480;6.056;2023-05-08T03:23:25;101946.75;;;9.68;100.00
60015;BME280;45867;52.480;6.056;2023-05-08T03:25:52;101949.97;;;9.70;100.00
60015;BME280;45867;52.480;6.056;2023-05-08T03:28:19;101952.16;;;9.73;100.00
60015;BME280;45867;52.480;6.056;2023-05-08T03:30:46;101954.56;;;9.75;100.00
60015;BME280;45867;52.480;6.056;2023-05-08T03:33:12;101953.53;;;9.76;100.00
60015;BME280;45867;52.480;6.056;2023-05-08T03:35:38;101959.41;;;9.78;100.00
60015;BME280;45867;52.480;6.056;2023-05-08T03:38:05;101956.97;;;9.76;100.00
60015;BME280;45867;52.480;6.056;2023-05-08T03:40:32;101953.41;;;9.83;100.00
60015;BME280;45867;52.480;6.056;2023-05-08T03:43:01;101952.97;;;9.74;100.00
60015;BME280;45867;52.480;6.056;2023-05-08T03:45:27;101949.84;;;9.65;100.00
60015;BME280;45867;52.480;6.056;2023-05-08T03:47:52;101942.63;;;9.61;100.00
60015;BME280;45867;52.480;6.056;2023-05-08T03:50:18;101945.16;;;9.55;100.00
60015;BME280;45867;52.480;6.056;2023-05-08T03:52:43;101937.91;;;9.51;100.00
60015;BME280;45867;52.480;6.056;2023-05-08T03:55:09;101938.84;;;9.45;100.00
60015;BME280;45867;52.480;6.056;2023-05-08T03:57:47;101938.94;;;9.50;100.00
60015;BME280;45867;52.480;6.056;2023-05-08T04:03:24;101936.28;;;9.38;100.00
60015;BME280;45867;52.480;6.056;2023-05-08T04:06:27;101937.34;;;9.37;100.00
60015;BME280;45867;52.480;6.056;2023-05-08T04:09:01;101937.00;;;9.33;100.00
60015;BME280;45867;52.480;6.056;2023-05-08T04:11:37;101941.50;;;9.33;100.00
60015;BME280;45867;52.480;6.056;2023-05-08T04:14:07;101933.19;;;9.29;100.00
60015;BME280;45867;52.480;6.056;2023-05-08T04:16:38;101925.97;;;9.25;100.00
60015;BME280;45867;52.480;6.056;2023-05-08T04:19:09;101932.41;;;9.29;100.00
60015;BME280;45867;52.480;6.056;2023-05-08T04:21:35;101932.72;;;9.32;100.00
60015;BME280;45867;52.480;6.056;2023-05-08T04:24:06;101934.34;;;9.33;100.00
60015;BME280;45867;52.480;6.056;2023-05-08T04:26:32;101932.72;;;9.32;100.00
60015;BME280;45867;52.480;6.056;2023-05-08T04:28:58;101924.31;;;9.36;100.00
60015;BME280;45867;52.480;6.056;2023-05-08T04:31:24;101923.66;;;9.40;100.00
60015;BME280;45867;52.480;6.056;2023-05-08T04:33:51;101932.28;;;9.47;100.00
60015;BME280;45867;52.480;6.056;2023-05-08T04:36:16;101929.63;;;9.59;100.00
60015;BME280;45867;52.480;6.056;2023-05-08T04:38:42;101930.31;;;9.54;100.00
60015;BME280;45867;52.480;6.056;2023-05-08T04:41:07;101922.59;;;9.53;100.00
60015;BME280;45867;52.480;6.056;2023-05-08T04:43:34;101936.41;;;9.55;100.00
60015;BME280;45867;52.480;6.056;2023-05-08T04:46:00;101946.88;;;9.50;100.00
60015;BME280;45867;52.480;6.056;2023-05-08T04:48:25;101941.00;;;9.48;100.00
60015;BME280;45867;52.480;6.056;2023-05-08T04:50:51;101945.72;;;9.46;100.00
60015;BME280;45867;52.480;6.056;2023-05-08T04:53:16;101950.34;;;9.50;100.00
60015;BME280;45867;52.480;6.056;2023-05-08T04:55:41;101952.19;;;9.50;100.00
60015;BME280;45867;52.480;6.056;2023-05-08T04:58:06;101945.16;;;9.55;100.00
60015;BME280;45867;52.480;6.056;2023-05-08T05:00:33;101955.25;;;9.70;100.00
60015;BME280;45867;52.480;6.056;2023-05-08T05:02:58;101952.97;;;9.74;100.00
60015;BME280;45867;52.480;6.056;2023-05-08T05:05:23;101957.31;;;9.80;100.00
60015;BME280;45867;52.480;6.056;2023-05-08T05:07:49;101946.84;;;9.85;100.00
60015;BME280;45867;52.480;6.056;2023-05-08T05:10:14;101937.84;;;9.86;100.00
60015;BME280;45867;52.480;6.056;2023-05-08T05:12:40;101954.88;;;10.02;100.00
60015;BME280;45867;52.480;6.056;2023-05-08T05:15:05;101948.63;;;10.08;100.00
60015;BME280;45867;52.480;6.056;2023-05-08T05:17:31;101948.56;;;10.20;100.00
60015;BME280;45867;52.480;6.056;2023-05-08T05:19:57;101947.94;;;10.41;100.00
60015;BME280;45867;52.480;6.056;2023-05-08T05:22:23;101955.94;;;10.58;100.00
60015;BME280;45867;52.480;6.056;2023-05-08T05:24:48;101955.25;;;10.80;100.00
60015;BME280;45867;52.480;6.056;2023-05-08T05:27:17;101958.09;;;11.07;100.00
60015;BME280;45867;52.480;6.056;2023-05-08T05:29:42;101956.25;;;11.24;100.00
60015;BME280;45867;52.480;6.056;2023-05-08T05:32:07;101959.81;;;11.52;100.00
60015;BME280;45867;52.480;6.056;2023-05-08T05:34:35;101963.53;;;11.73;100.00
60015;BME280;45867;52.480;6.056;2023-05-08T05:37:01;101962.53;;;11.96;100.00
60015;BME280;45867;52.480;6.056;2023-05-08T05:39:26;101972.75;;;12.04;100.00
60015;BME280;45867;52.480;6.056;2023-05-08T05:41:51;101967.53;;;12.36;100.00
60015;BME280;45867;52.480;6.056;2023-05-08T05:44:17;101983.47;;;12.36;100.00
60015;BME280;45867;52.480;6.056;2023-05-08T05:46:42;101986.69;;;12.65;100.00
60015;BME280;45867;52.480;6.056;2023-05-08T05:49:08;101992.50;;;12.62;100.00
60015;BME280;45867;52.480;6.056;2023-05-08T05:51:33;101992.31;;;12.42;100.00
60015;BME280;45867;52.480;6.056;2023-05-08T05:53:58;102015.19;;;12.21;100.00
60015;BME280;45867;52.480;6.056;2023-05-08T05:56:24;102017.28;;;11.97;100.00
60015;BME280;45867;52.480;6.056;2023-05-08T05:58:49;102022.09;;;11.83;100.00
60015;BME280;45867;52.480;6.056;2023-05-08T06:01:14;102040.81;;;11.88;100.00
60015;BME280;45867;52.480;6.056;2023-05-08T06:03:40;102045.31;;;11.88;100.00
60015;BME280;45867;52.480;6.056;2023-05-08T06:06:05;102038.03;;;12.00;100.00
60015;BME280;45867;52.480;6.056;2023-05-08T06:08:31;102039.53;;;12.35;100.00
60015;BME280;45867;52.480;6.056;2023-05-08T06:10:56;102047.69;;;12.50;100.00
60015;BME280;45867;52.480;6.056;2023-05-08T06:13:22;102045.03;;;12.50;100.00
60015;BME280;45867;52.480;6.056;2023-05-08T06:15:48;102054.69;;;12.34;100.00
60015;BME280;45867;52.480;6.056;2023-05-08T06:18:14;102061.06;;;12.33;100.00
60015;BME280;45867;52.480;6.056;2023-05-08T06:20:40;102049.56;;;12.28;100.00
60015;BME280;45867;52.480;6.056;2023-05-08T06:23:05;102054.81;;;12.23;100.00
60015;BME280;45867;52.480;6.056;2023-05-08T06:25:30;102061.22;;;12.27;100.00
60015;BME280;45867;52.480;6.056;2023-05-08T06:27:56;102064.69;;;12.27;100.00
60015;BME280;45867;52.480;6.056;2023-05-08T06:30:22;102060.50;;;12.31;100.00
60015;BME280;45867;52.480;6.056;2023-05-08T06:32:47;102063.22;;;12.36;100.00
60015;BME280;45867;52.480;6.056;2023-05-08T06:35:14;102054.81;;;12.44;100.00
60015;BME280;45867;52.480;6.056;2023-05-08T06:37:45;102062.72;;;12.39;100.00
60015;BME280;45867;52.480;6.056;2023-05-08T06:40:11;102062.44;;;12.36;100.00
60015;BME280;45867;52.480;6.056;2023-05-08T06:42:38;102074.16;;;12.40;100.00
60015;BME280;45867;52.480;6.056;2023-05-08T06:45:03;102071.13;;;12.53;100.00
60015;BME280;45867;52.480;6.056;2023-05-08T06:47:29;102071.25;;;12.63;100.00
60015;BME280;45867;52.480;6.056;2023-05-08T06:49:54;102066.28;;;12.72;100.00
60015;BME280;45867;52.480;6.056;2023-05-08T06:52:19;102065.34;;;12.83;100.00
60015;BME280;45867;52.480;6.056;2023-05-08T06:54:45;102068.44;;;13.02;100.00
60015;BME280;45867;52.480;6.056;2023-05-08T06:57:10;102068.78;;;13.11;100.00
60015;BME280;45867;52.480;6.056;2023-05-08T06:59:37;102065.66;;;13.19;100.00
60015;BME280;45867;52.480;6.056;2023-05-08T07:02:03;102065.91;;;13.45;100.00
60015;BME280;45867;52.480;6.056;2023-05-08T07:04:28;102069.19;;;13.57;100.00
60015;BME280;45867;52.480;6.056;2023-05-08T07:06:53;102071.81;;;13.89;100.00
60015;BME280;45867;52.480;6.056;2023-05-08T07:09:19;102066.88;;;14.18;100.00
60015;BME280;45867;52.480;6.056;2023-05-08T07:11:44;102069.41;;;14.51;100.00
60015;BME280;45867;52.480;6.056;2023-05-08T07:14:09;102064.50;;;14.95;100.00
60015;BME280;45867;52.480;6.056;2023-05-08T07:16:34;102065.84;;;15.34;100.00
60015;BME280;45867;52.480;6.056;2023-05-08T07:19:00;102070.53;;;16.13;100.00
60015;BME280;45867;52.480;6.056;2023-05-08T07:21:25;102078.28;;;16.80;100.00
60015;BME280;45867;52.480;6.056;2023-05-08T07:23:50;102087.41;;;16.69;100.00
60015;BME280;45867;52.480;6.056;2023-05-08T07:26:17;102105.06;;;16.05;100.00
60015;BME280;45867;52.480;6.056;2023-05-08T07:28:43;102097.09;;;15.74;100.00
60015;BME280;45867;52.480;6.056;2023-05-08T07:31:08;102112.59;;;15.57;100.00
60015;BME280;45867;52.480;6.056;2023-05-08T07:33:33;102109.66;;;15.58;100.00
60015;BME280;45867;52.480;6.056;2023-05-08T07:35:59;102107.25;;;15.62;100.00
60015;BME280;45867;52.480;6.056;2023-05-08T07:38:25;102119.44;;;16.29;100.00
60015;BME280;45867;52.480;6.056;2023-05-08T07:40:50;102114.31;;;17.32;100.00
60015;BME280;45867;52.480;6.056;2023-05-08T07:43:17;102118.91;;;18.19;100.00
60015;BME280;45867;52.480;6.056;2023-05-08T07:45:42;102122.16;;;18.83;100.00
60015;BME280;45867;52.480;6.056;2023-05-08T07:48:08;102127.94;;;19.28;100.00
60015;BME280;45867;52.480;6.056;2023-05-08T07:50:33;102132.00;;;20.18;100.00
60015;BME280;45867;52.480;6.056;2023-05-08T07:52:58;102146.09;;;19.69;100.00
60015;BME280;45867;52.480;6.056;2023-05-08T07:55:24;102137.38;;;19.91;100.00
60015;BME280;45867;52.480;6.056;2023-05-08T07:57:49;102139.00;;;20.33;100.00
60015;BME280;45867;52.480;6.056;2023-05-08T08:00:15;102137.78;;;20.67;100.00
60015;BME280;45867;52.480;6.056;2023-05-08T08:02:42;102151.72;;;22.04;100.00
60015;BME280;45867;52.480;6.056;2023-05-08T08:05:08;102162.50;;;22.04;100.00
60015;BME280;45867;52.480;6.056;2023-05-08T08:07:34;102164.16;;;22.54;100.00
60015;BME280;45867;52.480;6.056;2023-05-08T08:10:00;102162.78;;;22.25;100.00
60015;BME280;45867;52.480;6.056;2023-05-08T08:12:27;102170.19;;;21.80;100.00
60015;BME280;45867;52.480;6.056;2023-05-08T08:14:53;102159.59;;;21.16;100.00
60015;BME280;45867;52.480;6.056;2023-05-08T08:17:18;102159.25;;;21.31;100.00
60015;BME280;45867;52.480;6.056;2023-05-08T08:19:43;102155.22;;;21.73;100.00
60015;BME280;45867;52.480;6.056;2023-05-08T08:22:08;102170.41;;;21.92;100.00
60015;BME280;45867;52.480;6.056;2023-05-08T08:24:34;102169.34;;;21.70;100.00
60015;BME280;45867;52.480;6.056;2023-05-08T08:27:00;102160.91;;;21.94;100.00
60015;BME280;45867;52.480;6.056;2023-05-08T08:29:25;102159.53;;;22.14;100.00
60015;BME280;45867;52.480;6.056;2023-05-08T08:31:50;102161.97;;;22.82;100.00
60015;BME280;45867;52.480;6.056;2023-05-08T08:34:16;102163.94;;;22.33;100.00
60015;BME280;45867;52.480;6.056;2023-05-08T08:36:44;102152.00;;;22.25;100.00
60015;BME280;45867;52.480;6.056;2023-05-08T08:39:09;102144.25;;;22.41;100.00
60015;BME280;45867;52.480;6.056;2023-05-08T08:41:34;102140.47;;;22.59;100.00
60015;BME280;45867;52.480;6.056;2023-05-08T08:44:00;102139.22;;;23.26;100.00
60015;BME280;45867;52.480;6.056;2023-05-08T08:46:26;102143.44;;;23.62;100.00
60015;BME280;45867;52.480;6.056;2023-05-08T08:48:54;102141.56;;;23.63;100.00
60015;BME280;45867;52.480;6.056;2023-05-08T08:51:39;102132.63;;;23.62;100.00
60015;BME280;45867;52.480;6.056;2023-05-08T08:54:12;102129.94;;;23.71;100.00
60015;BME280;45867;52.480;6.056;2023-05-08T08:56:39;102131.00;;;24.68;100.00
60015;BME280;45867;52.480;6.056;2023-05-08T08:59:10;102147.06;;;25.15;100.00
60015;BME280;45867;52.480;6.056;2023-05-08T09:01:38;102146.47;;;25.09;100.00
60015;BME280;45867;52.480;6.056;2023-05-08T09:04:03;102146.72;;;25.50;100.00
60015;BME280;45867;52.480;6.056;2023-05-08T09:06:36;102152.59;;;25.85;100.00
60015;BME280;45867;52.480;6.056;2023-05-08T09:09:03;102151.34;;;26.31;100.00
60015;BME280;45867;52.480;6.056;2023-05-08T09:11:28;102154.06;;;26.84;100.00
60015;BME280;45867;52.480;6.056;2023-05-08T09:13:54;102151.81;;;27.42;100.00
60015;BME280;45867;52.480;6.056;2023-05-08T09:16:21;102159.78;;;28.30;99.72
60015;BME280;45867;52.480;6.056;2023-05-08T09:18:46;102152.66;;;25.76;98.20
60015;BME280;45867;52.480;6.056;2023-05-08T09:21:11;102148.75;;;26.23;100.00
60015;BME280;45867;52.480;6.056;2023-05-08T09:26:40;102141.56;;;28.89;96.63
60015;BME280;45867;52.480;6.056;2023-05-08T09:29:18;102146.66;;;28.71;95.79
60015;BME280;45867;52.480;6.056;2023-05-08T09:31:47;102146.94;;;29.05;85.34
60015;BME280;45867;52.480;6.056;2023-05-08T09:34:26;102144.13;;;29.63;85.29
60015;BME280;45867;52.480;6.056;2023-05-08T09:37:10;102141.97;;;29.11;83.70
60015;BME280;45867;52.480;6.056;2023-05-08T09:39:36;102139.75;;;28.97;85.60
60015;BME280;45867;52.480;6.056;2023-05-08T09:42:04;102139.81;;;29.20;86.36
60015;BME280;45867;52.480;6.056;2023-05-08T09:44:59;102147.88;;;29.13;85.22
60015;BME280;45867;52.480;6.056;2023-05-08T09:47:24;102142.84;;;29.15;83.33
60015;BME280;45867;52.480;6.056;2023-05-08T09:50:09;102139.41;;;28.24;85.94
60015;BME280;45867;52.480;6.056;2023-05-08T09:52:37;102142.41;;;28.54;88.20
60015;BME280;45867;52.480;6.056;2023-05-08T09:55:05;102149.25;;;29.23;80.92
60015;BME280;45867;52.480;6.056;2023-05-08T09:57:34;102142.09;;;29.60;83.77
60015;BME280;45867;52.480;6.056;2023-05-08T10:00:08;102140.94;;;29.61;80.83
60015;BME280;45867;52.480;6.056;2023-05-08T10:02:38;102135.00;;;28.94;87.46
60015;BME280;45867;52.480;6.056;2023-05-08T10:05:22;102136.31;;;29.42;79.42
60015;BME280;45867;52.480;6.056;2023-05-08T10:07:47;102137.47;;;29.88;80.39
60015;BME280;45867;52.480;6.056;2023-05-08T10:10:13;102134.78;;;29.91;78.04
60015;BME280;45867;52.480;6.056;2023-05-08T10:12:39;102134.31;;;30.39;76.85
60015;BME280;45867;52.480;6.056;2023-05-08T10:15:06;102147.88;;;30.92;74.52
60015;BME280;45867;52.480;6.056;2023-05-08T10:17:43;102149.53;;;31.00;66.80
60015;BME280;45867;52.480;6.056;2023-05-08T10:20:13;102142.13;;;31.38;65.94
60015;BME280;45867;52.480;6.056;2023-05-08T10:22:42;102146.69;;;31.27;67.31
60015;BME280;45867;52.480;6.056;2023-05-08T10:25:11;102132.56;;;31.69;67.43
60015;BME280;45867;52.480;6.056;2023-05-08T10:27:46;102144.03;;;32.44;65.87
60015;BME280;45867;52.480;6.056;2023-05-08T10:30:16;102140.22;;;32.67;63.21
60015;BME280;45867;52.480;6.056;2023-05-08T10:32:44;102147.50;;;31.31;62.80
60015;BME280;45867;52.480;6.056;2023-05-08T10:35:11;102143.63;;;30.94;66.38
60015;BME280;45867;52.480;6.056;2023-05-08T10:37:37;102139.69;;;31.33;66.38
60015;BME280;45867;52.480;6.056;2023-05-08T10:40:04;102139.69;;;31.33;70.25
60015;BME280;45867;52.480;6.056;2023-05-08T10:42:32;102131.47;;;30.92;71.59
60015;BME280;45867;52.480;6.056;2023-05-08T10:44:58;102122.41;;;30.24;70.23
60015;BME280;45867;52.480;6.056;2023-05-08T10:47:50;102128.56;;;30.78;69.90
60015;BME280;45867;52.480;6.056;2023-05-08T10:50:24;102122.19;;;29.14;80.59
60015;BME280;45867;52.480;6.056;2023-05-08T10:53:06;102125.06;;;28.63;81.25
60015;BME280;45867;52.480;6.056;2023-05-08T10:55:37;102123.88;;;29.22;86.02
60015;BME280;45867;52.480;6.056;2023-05-08T11:03:27;102115.38;;;29.27;77.63
60015;BME280;45867;52.480;6.056;2023-05-08T11:05:53;102109.19;;;28.49;85.35
60015;BME280;45867;52.480;6.056;2023-05-08T11:08:22;102117.50;;;28.56;89.05
60015;BME280;45867;52.480;6.056;2023-05-08T11:13:37;102111.84;;;27.78;87.07
60015;BME280;45867;52.480;6.056;2023-05-08T11:16:04;102109.75;;;27.56;89.12
60015;BME280;45867;52.480;6.056;2023-05-08T11:18:36;102101.09;;;26.01;98.70
60015;BME280;45867;52.480;6.056;2023-05-08T11:21:03;102103.25;;;25.95;100.00
60015;BME280;45867;52.480;6.056;2023-05-08T11:23:31;102092.06;;;25.84;100.00
60015;BME280;45867;52.480;6.056;2023-05-08T11:28:28;102091.28;;;24.72;100.00
60015;BME280;45867;52.480;6.056;2023-05-08T11:30:55;102087.00;;;23.43;100.00
60015;BME280;45867;52.480;6.056;2023-05-08T11:33:21;102076.84;;;23.32;100.00
60015;BME280;45867;52.480;6.056;2023-05-08T11:35:55;102076.63;;;23.54;100.00
60015;BME280;45867;52.480;6.056;2023-05-08T11:38:34;102076.09;;;23.05;100.00
60015;BME280;45867;52.480;6.056;2023-05-08T11:41:21;102080.69;;;23.31;100.00
60015;BME280;45867;52.480;6.056;2023-05-08T11:46:40;102063.72;;;22.69;100.00
60015;BME280;45867;52.480;6.056;2023-05-08T11:49:11;102060.66;;;22.19;100.00
60015;BME280;45867;52.480;6.056;2023-05-08T11:51:37;102062.94;;;21.85;100.00
60015;BME280;45867;52.480;6.056;2023-05-08T11:54:03;102065.81;;;21.98;100.00
60015;BME280;45867;52.480;6.056;2023-05-08T11:56:29;102059.22;;;21.41;100.00
60015;BME280;45867;52.480;6.056;2023-05-08T11:59:05;102057.44;;;21.68;100.00
60015;BME280;45867;52.480;6.056;2023-05-08T12:01:31;102065.34;;;21.56;100.00
60015;BME280;45867;52.480;6.056;2023-05-08T12:04:05;102064.69;;;21.50;100.00
60015;BME280;45867;52.480;6.056;2023-05-08T12:06:31;102056.56;;;20.74;100.00
60015;BME280;45867;52.480;6.056;2023-05-08T12:08:58;102057.03;;;20.76;100.00
60015;BME280;45867;52.480;6.056;2023-05-08T12:11:24;102057.66;;;20.73;100.00
60015;BME280;45867;52.480;6.056;2023-05-08T12:13:50;102048.78;;;20.95;100.00
60015;BME280;45867;52.480;6.056;2023-05-08T12:16:16;102042.34;;;21.04;100.00
60015;BME280;45867;52.480;6.056;2023-05-08T12:18:41;102043.13;;;21.05;100.00
60015;BME280;45867;52.480;6.056;2023-05-08T12:21:09;102055.84;;;20.82;100.00
60015;BME280;45867;52.480;6.056;2023-05-08T12:23:35;102044.06;;;20.42;100.00
60015;BME280;45867;52.480;6.056;2023-05-08T12:26:02;102035.28;;;20.36;100.00
60015;BME280;45867;52.480;6.056;2023-05-08T12:28:28;102032.53;;;20.00;100.00
60015;BME280;45867;52.480;6.056;2023-05-08T12:30:53;102040.31;;;20.01;100.00
60015;BME280;45867;52.480;6.056;2023-05-08T12:33:19;102044.75;;;19.50;100.00
60015;BME280;45867;52.480;6.056;2023-05-08T12:35:45;102041.38;;;19.59;100.00
60015;BME280;45867;52.480;6.056;2023-05-08T12:38:10;102040.56;;;19.44;100.00
60015;BME280;45867;52.480;6.056;2023-05-08T12:40:44;102042.47;;;19.44;100.00
60015;BME280;45867;52.480;6.056;2023-05-08T12:43:09;102042.72;;;19.28;100.00
60015;BME280;45867;52.480;6.056;2023-05-08T12:45:41;102042.63;;;19.01;100.00
60015;BME280;45867;52.480;6.056;2023-05-08T12:48:09;102044.91;;;18.94;100.00
60015;BME280;45867;52.480;6.056;2023-05-08T12:50:35;102050.41;;;18.46;100.00
60015;BME280;45867;52.480;6.056;2023-05-08T12:53:05;102059.63;;;18.39;100.00
60015;BME280;45867;52.480;6.056;2023-05-08T12:55:32;102049.06;;;18.24;100.00
60015;BME280;45867;52.480;6.056;2023-05-08T12:58:08;102026.56;;;18.01;100.00
60015;BME280;45867;52.480;6.056;2023-05-08T13:00:38;102018.59;;;17.96;100.00
60015;BME280;45867;52.480;6.056;2023-05-08T13:03:05;102008.28;;;18.03;100.00
60015;BME280;45867;52.480;6.056;2023-05-08T13:05:30;102000.00;;;18.24;100.00
60015;BME280;45867;52.480;6.056;2023-05-08T13:08:04;101987.22;;;18.15;100.00
60015;BME280;45867;52.480;6.056;2023-05-08T13:13:08;101974.16;;;18.47;100.00
60015;BME280;45867;52.480;6.056;2023-05-08T13:15:53;101969.50;;;18.52;100.00
60015;BME280;45867;52.480;6.056;2023-05-08T13:18:27;101940.72;;;18.58;100.00
60015;BME280;45867;52.480;6.056;2023-05-08T13:21:12;101933.66;;;18.62;100.00